Naples Municipal, FL

7:21 AM EDT on September 19, 2014 (GMT -0400)
Page | Change Station
CLOSE
Current Station
Airport
Location: Fort Myers,
Elevation: 16 ft
Nearby Weather Stations

Elev 16 ft 26.58 °N, 81.86 °W | Updated 28 minutes ago

Clear
Clear
75 °F
Feels Like 75 °F
N
4
Wind Variable Wind from East

Today
High -- | Low -- °F
--% Chance of Precip.
Yesterday
High -- | Low -- °F
Precip. -- in
7:14 AM 7:26 PM
Waning Crescent, 20% visible
Pressure 29.91 in
Visibility 10.0 miles
Clouds Clear
Dew Point 75 °F
Humidity 100%
Rainfall 0.00 in
Snow Depth Not available.
UV 0 out of 12
Pollen 2.00 out of 12
Air Quality Not available.
Flu Activity Not available.
METAR KFMY 191053Z 10003KT 10SM CLR 24/24 A2990 RMK AO2 SLP127 T02390239

More Conditions Fewer Conditions

Pressure 29.91 in
Visibility 10.0 miles
Clouds Clear
Dew Point 75 °F
Humidity 100%
Rainfall 0.00 in
Snow Depth Not available.
UV 0 out of 12
Pollen 2.00 out of 12
Air Quality Not available.
Flu Activity Not available.
METAR KFMY 191053Z 10003KT 10SM CLR 24/24 A2990 RMK AO2 SLP127 T02390239

More Conditions Fewer Conditions

10-Day Weather Forecast

Almanac

Astronomy

Sep. 19, 2014 Rise Set
Actual Time 7:14 AM EDT 7:26 PM EDT
Civil Twilight 6:51 AM EDT 7:49 PM EDT
Nautical Twilight 6:24 AM EDT 8:16 PM EDT
Astronomical Twilight 5:57 AM EDT 8:43 PM EDT
Moon 3:17 AM EDT 4:37 PM EDT
Length of Visible Light 12h 58m
Length of Day
12h 12m
Tomorrow will be 1m 31s shorter.
Waning Crescent, 20% of the Moon is Illuminated
Today
Waning Crescent
Sep 24
New
Oct 1
First Quarter
Oct 8
Full
Oct 15
Last Quarter

Today's Extremes

State Highs State Lows

Community

WunderPhotos

Upload Photos

1,754,596 photos uploaded!

WunderBlogs® & News

Nearby

Snow Depth

Station Depth Elevation
No new snow has been reported.

Earthquake Activity

City Distance Mag. Time & Date
No recent earthquake activity has been reported nearby.
Minimum magnitude displayed is 2.5.

Coastal Water Temperatures

Place Temperature
Naples, FL 89.1 °F

Nearby Weather Stations